createdAt,value
2019-06-27T00:01:38.496Z,19.22
2019-06-27T00:04:07.595Z,19.26
2019-06-27T00:06:36.799Z,19.13
2019-06-27T00:09:09.086Z,18.92
2019-06-27T00:11:37.815Z,18.90
2019-06-27T00:14:06.867Z,18.41
2019-06-27T00:16:35.750Z,18.56
2019-06-27T00:19:04.547Z,18.26
2019-06-27T00:21:33.354Z,18.41
2019-06-27T00:24:02.071Z,17.88
2019-06-27T00:26:30.813Z,17.90
2019-06-27T00:29:02.049Z,17.77
2019-06-27T00:31:30.183Z,17.92
2019-06-27T00:33:59.369Z,17.71
2019-06-27T00:36:28.273Z,17.71
2019-06-27T00:38:56.997Z,17.83
2019-06-27T00:41:25.735Z,17.51
2019-06-27T00:43:54.473Z,17.56
2019-06-27T00:46:23.203Z,17.38
2019-06-27T00:48:51.952Z,17.38
2019-06-27T00:51:20.691Z,17.36
2019-06-27T00:53:49.440Z,17.36
2019-06-27T00:56:18.147Z,17.50
2019-06-27T00:58:46.979Z,17.40
2019-06-27T01:01:15.710Z,17.45
2019-06-27T01:03:44.413Z,17.13
2019-06-27T01:06:13.287Z,16.96
2019-06-27T01:08:42.187Z,16.94
2019-06-27T01:11:11.014Z,17.00
2019-06-27T01:13:39.755Z,16.74
2019-06-27T01:16:08.783Z,17.00
2019-06-27T01:18:37.571Z,17.10
2019-06-27T01:21:06.385Z,17.04
2019-06-27T01:23:35.214Z,16.95
2019-06-27T01:26:04.018Z,16.88
2019-06-27T01:28:32.766Z,16.95
2019-06-27T01:31:01.567Z,17.00
2019-06-27T01:33:30.312Z,16.91
2019-06-27T01:35:59.100Z,16.92
2019-06-27T01:38:27.821Z,16.71
2019-06-27T01:40:56.594Z,16.80
2019-06-27T01:43:25.313Z,16.86
2019-06-27T01:45:56.389Z,16.68
2019-06-27T01:48:25.168Z,17.22
2019-06-27T01:50:53.891Z,17.53
2019-06-27T01:53:22.668Z,17.38
2019-06-27T01:55:51.517Z,16.91
2019-06-27T01:58:20.331Z,17.03
2019-06-27T02:00:49.083Z,16.69
2019-06-27T02:03:17.907Z,16.57
2019-06-27T02:05:46.653Z,16.41
2019-06-27T02:08:15.487Z,16.42
2019-06-27T02:10:44.235Z,16.38
2019-06-27T02:13:12.982Z,16.47
2019-06-27T02:15:42.136Z,16.48
2019-06-27T02:18:10.915Z,16.36
2019-06-27T02:20:39.704Z,16.23
2019-06-27T02:23:08.468Z,16.35
2019-06-27T02:25:37.221Z,16.25
2019-06-27T02:28:06.138Z,16.18
2019-06-27T02:30:44.566Z,16.31
2019-06-27T02:33:13.572Z,16.61
2019-06-27T02:35:42.578Z,16.54
2019-06-27T02:38:11.613Z,16.43
2019-06-27T02:40:40.650Z,16.34
2019-06-27T02:43:09.426Z,16.37
2019-06-27T02:45:38.252Z,15.98
2019-06-27T02:48:07.149Z,16.06
2019-06-27T02:50:42.961Z,16.20
2019-06-27T02:53:14.871Z,16.28
2019-06-27T02:55:44.102Z,16.05
2019-06-27T02:58:29.558Z,16.18
2019-06-27T03:01:04.659Z,16.03
2019-06-27T03:03:34.305Z,15.92
2019-06-27T03:06:03.963Z,16.20
2019-06-27T03:08:32.767Z,16.18
2019-06-27T03:11:01.600Z,16.05
2019-06-27T03:13:30.477Z,16.10
2019-06-27T03:15:59.213Z,16.17
2019-06-27T03:18:28.068Z,15.87
2019-06-27T03:20:56.788Z,15.97
2019-06-27T03:23:25.562Z,16.14
2019-06-27T03:25:54.352Z,16.01
2019-06-27T03:28:23.122Z,16.23
2019-06-27T03:30:52.612Z,16.10
2019-06-27T03:33:21.381Z,15.90
2019-06-27T03:35:50.303Z,16.18
2019-06-27T03:38:19.309Z,15.84
2019-06-27T03:40:48.074Z,15.81
2019-06-27T03:43:16.943Z,15.54
2019-06-27T03:45:45.663Z,16.07
2019-06-27T03:48:15.414Z,16.09
2019-06-27T03:50:44.177Z,16.05
2019-06-27T03:53:12.905Z,16.19
2019-06-27T03:55:41.630Z,16.10
2019-06-27T03:58:10.356Z,15.94
2019-06-27T04:00:39.198Z,15.98
2019-06-27T04:03:07.992Z,16.22
2019-06-27T04:05:36.736Z,15.97
2019-06-27T04:08:05.482Z,15.78
2019-06-27T04:10:34.604Z,15.99
2019-06-27T04:13:03.322Z,15.87
2019-06-27T04:15:32.059Z,15.82
2019-06-27T04:18:01.084Z,15.49
2019-06-27T04:20:29.842Z,15.60
2019-06-27T04:22:58.642Z,15.53
2019-06-27T04:25:27.512Z,15.59
2019-06-27T04:27:59.945Z,15.55
2019-06-27T04:30:26.833Z,15.66
2019-06-27T04:32:55.788Z,15.30
2019-06-27T04:35:24.610Z,15.63
2019-06-27T04:37:53.408Z,15.60
2019-06-27T04:40:22.455Z,15.80
2019-06-27T04:42:51.249Z,15.61
2019-06-27T04:45:20.007Z,15.82
2019-06-27T04:47:48.877Z,15.86
2019-06-27T04:50:17.660Z,16.14
2019-06-27T04:52:46.437Z,15.71
2019-06-27T04:55:15.260Z,15.87
2019-06-27T04:57:44.008Z,15.95
2019-06-27T05:00:19.623Z,15.98
2019-06-27T05:02:48.339Z,15.91
2019-06-27T05:05:17.160Z,15.82
2019-06-27T05:07:45.878Z,15.80
2019-06-27T05:10:14.798Z,15.70
2019-06-27T05:12:43.678Z,15.71
2019-06-27T05:15:12.408Z,15.41
2019-06-27T05:17:41.111Z,15.52
2019-06-27T05:20:10.029Z,15.71
2019-06-27T05:22:38.746Z,15.80
2019-06-27T05:25:07.833Z,15.83
2019-06-27T05:27:36.537Z,15.95
2019-06-27T05:30:09.898Z,15.97
2019-06-27T05:32:36.064Z,15.72
2019-06-27T05:35:05.089Z,15.93
2019-06-27T05:37:33.960Z,16.21
2019-06-27T05:40:02.729Z,15.51
2019-06-27T05:42:31.508Z,15.53
2019-06-27T05:45:00.231Z,15.61
2019-06-27T05:47:29.267Z,15.63
2019-06-27T05:49:57.980Z,16.06
2019-06-27T05:52:26.786Z,15.81
2019-06-27T05:54:55.574Z,15.85
2019-06-27T05:57:24.343Z,15.93
2019-06-27T05:59:53.239Z,16.13
2019-06-27T06:02:22.045Z,15.83
2019-06-27T06:04:50.787Z,16.22
2019-06-27T06:07:19.938Z,16.29
2019-06-27T06:09:49.020Z,16.30
2019-06-27T06:12:17.815Z,15.73
2019-06-27T06:14:46.574Z,15.83
2019-06-27T06:17:15.303Z,15.96
2019-06-27T06:19:44.043Z,16.19
2019-06-27T06:22:12.799Z,15.83
2019-06-27T06:24:41.648Z,15.73
2019-06-27T06:27:10.342Z,15.66
2019-06-27T06:29:39.126Z,15.68
2019-06-27T06:32:07.875Z,15.95
2019-06-27T06:34:36.704Z,16.00
2019-06-27T06:37:07.983Z,15.78
2019-06-27T06:39:36.028Z,15.89
2019-06-27T06:42:04.899Z,15.80
2019-06-27T06:44:33.817Z,16.01
2019-06-27T06:47:02.566Z,15.59
2019-06-27T06:49:31.296Z,15.76
2019-06-27T06:52:00.650Z,16.05
2019-06-27T06:54:29.634Z,16.14
2019-06-27T06:56:58.401Z,16.18
2019-06-27T06:59:27.251Z,16.05
2019-06-27T07:01:55.997Z,16.09
2019-06-27T07:04:25.006Z,16.25
2019-06-27T07:06:53.788Z,16.25
2019-06-27T07:09:22.518Z,16.15
2019-06-27T07:11:51.233Z,15.99
2019-06-27T07:14:19.933Z,15.95
2019-06-27T07:16:48.665Z,16.06
2019-06-27T07:19:17.376Z,16.18
2019-06-27T07:21:46.112Z,16.55
2019-06-27T07:24:14.822Z,16.71
2019-06-27T07:26:43.719Z,16.49
2019-06-27T07:29:12.469Z,16.51
2019-06-27T07:31:41.216Z,16.71
2019-06-27T07:34:09.934Z,16.61
2019-06-27T07:36:38.720Z,16.84
2019-06-27T07:39:07.484Z,16.89
2019-06-27T07:41:36.403Z,16.78
2019-06-27T07:44:05.211Z,17.01
2019-06-27T07:46:33.965Z,16.92
2019-06-27T07:49:02.758Z,16.77
2019-06-27T07:51:31.530Z,17.31
2019-06-27T07:54:00.790Z,17.40
2019-06-27T07:56:29.768Z,17.20
2019-06-27T07:58:58.537Z,17.54
2019-06-27T08:01:35.167Z,17.70
2019-06-27T08:03:57.717Z,17.61
2019-06-27T08:06:26.573Z,17.71
2019-06-27T08:08:55.425Z,17.70
2019-06-27T08:11:24.168Z,17.50
2019-06-27T08:13:52.967Z,17.51
2019-06-27T08:16:21.755Z,17.81
2019-06-27T08:18:50.623Z,17.75
2019-06-27T08:21:19.405Z,17.64
2019-06-27T08:23:48.173Z,17.77
2019-06-27T08:26:16.993Z,17.92
2019-06-27T08:28:45.742Z,18.18
2019-06-27T08:31:14.685Z,17.80
2019-06-27T08:33:43.468Z,17.82
2019-06-27T08:36:12.185Z,17.99
2019-06-27T08:38:40.935Z,18.17
2019-06-27T08:41:09.722Z,18.19
2019-06-27T08:43:38.613Z,17.97
2019-06-27T08:46:07.377Z,17.54
2019-06-27T08:48:36.207Z,17.77
2019-06-27T08:51:05.152Z,18.23
2019-06-27T08:53:33.865Z,18.20
2019-06-27T08:56:02.796Z,18.49
2019-06-27T08:58:31.534Z,18.50
2019-06-27T09:01:00.253Z,18.26
2019-06-27T09:03:29.012Z,18.18
2019-06-27T09:05:57.750Z,18.36
2019-06-27T09:08:26.489Z,18.29
2019-06-27T09:10:55.263Z,18.39
2019-06-27T09:13:24.003Z,18.50
2019-06-27T09:15:52.728Z,18.53
2019-06-27T09:18:21.451Z,18.83
2019-06-27T09:20:50.163Z,18.81
2019-06-27T09:23:18.912Z,18.80
2019-06-27T09:25:48.023Z,19.00
2019-06-27T09:28:16.743Z,19.02
2019-06-27T09:30:45.576Z,18.83
2019-06-27T09:33:14.313Z,18.88
2019-06-27T09:35:43.046Z,18.68
2019-06-27T09:38:11.887Z,19.00
2019-06-27T09:40:40.729Z,18.89
2019-06-27T09:43:09.563Z,19.14
2019-06-27T09:45:38.796Z,19.49
2019-06-27T09:48:07.667Z,19.42
2019-06-27T09:50:36.374Z,19.04
2019-06-27T09:53:05.194Z,19.19
2019-06-27T09:55:34.107Z,19.26
2019-06-27T09:58:03.143Z,19.45
2019-06-27T10:00:32.081Z,19.50
2019-06-27T10:03:00.864Z,19.54
2019-06-27T10:05:29.882Z,19.48
2019-06-27T10:07:58.621Z,19.69
2019-06-27T10:10:27.404Z,19.74
2019-06-27T10:12:56.127Z,19.75
2019-06-27T10:15:25.002Z,20.05
2019-06-27T10:17:54.112Z,20.24
2019-06-27T10:20:23.307Z,19.83
2019-06-27T10:22:52.159Z,20.20
2019-06-27T10:25:20.995Z,20.13
2019-06-27T10:27:49.808Z,20.34
2019-06-27T10:30:20.105Z,20.46
2019-06-27T10:32:59.250Z,20.64
2019-06-27T10:35:19.615Z,20.21
2019-06-27T10:37:48.375Z,20.14
2019-06-27T10:40:17.168Z,20.28
2019-06-27T10:42:46.025Z,20.53
2019-06-27T10:45:15.104Z,20.36
2019-06-27T10:47:43.841Z,20.29
2019-06-27T10:50:12.833Z,20.30
2019-06-27T10:52:41.868Z,20.37
2019-06-27T10:55:11.172Z,20.39
2019-06-27T10:57:40.012Z,20.77
2019-06-27T11:00:08.970Z,20.77
2019-06-27T11:02:37.787Z,20.88
2019-06-27T11:05:06.978Z,20.78
2019-06-27T11:07:35.799Z,21.06
2019-06-27T11:10:05.366Z,21.32
2019-06-27T11:12:34.103Z,21.16
2019-06-27T11:15:02.894Z,20.87
2019-06-27T11:17:31.636Z,20.65
2019-06-27T11:20:00.830Z,20.64
2019-06-27T11:22:29.584Z,20.68
2019-06-27T11:24:59.688Z,20.99
2019-06-27T11:27:28.567Z,21.36
2019-06-27T11:29:57.312Z,21.32
2019-06-27T11:32:26.089Z,21.47
2019-06-27T11:34:54.948Z,21.36
2019-06-27T11:37:23.662Z,21.51
2019-06-27T11:39:52.409Z,21.31
2019-06-27T11:42:21.150Z,21.71
2019-06-27T11:44:49.899Z,21.59
2019-06-27T11:47:18.711Z,21.79
2019-06-27T11:49:47.730Z,22.11
2019-06-27T11:52:16.596Z,21.86
2019-06-27T11:54:45.418Z,21.86
2019-06-27T11:57:14.142Z,21.72
2019-06-27T11:59:42.874Z,21.71
2019-06-27T12:02:11.653Z,21.36
2019-06-27T12:04:40.458Z,21.91
2019-06-27T12:07:09.164Z,22.07
2019-06-27T12:09:37.912Z,22.05
2019-06-27T12:12:06.658Z,21.88
2019-06-27T12:14:35.442Z,22.12
2019-06-27T12:17:04.326Z,22.37
2019-06-27T12:19:33.047Z,22.39
2019-06-27T12:22:01.815Z,22.67
2019-06-27T12:24:30.561Z,22.18
2019-06-27T12:26:59.303Z,21.79
2019-06-27T12:29:28.379Z,22.13
2019-06-27T12:31:57.472Z,22.19
2019-06-27T12:34:26.220Z,22.28
2019-06-27T12:36:55.000Z,22.17
2019-06-27T12:39:23.713Z,22.43
2019-06-27T12:41:52.582Z,21.83
2019-06-27T12:44:21.281Z,22.27
2019-06-27T12:46:50.137Z,22.21
2019-06-27T12:49:18.876Z,21.89
2019-06-27T12:51:47.606Z,22.09
2019-06-27T12:54:16.321Z,22.33
2019-06-27T12:56:45.094Z,22.38
2019-06-27T12:59:13.826Z,22.05
2019-06-27T13:01:42.534Z,22.01
2019-06-27T13:04:22.874Z,22.39
2019-06-27T13:06:41.737Z,22.07
2019-06-27T13:09:10.510Z,22.37
2019-06-27T13:11:39.269Z,22.28
2019-06-27T13:14:07.992Z,22.44
2019-06-27T13:16:36.801Z,22.42
2019-06-27T13:19:05.610Z,22.48
2019-06-27T13:21:34.328Z,22.28
2019-06-27T13:24:03.045Z,21.89
2019-06-27T13:26:31.866Z,22.29
2019-06-27T13:29:00.646Z,22.66
2019-06-27T13:31:29.396Z,22.35
2019-06-27T13:33:58.229Z,22.21
2019-06-27T13:36:26.963Z,22.28
2019-06-27T13:38:55.711Z,22.54
2019-06-27T13:41:24.441Z,22.75
2019-06-27T13:43:53.441Z,22.64
2019-06-27T13:46:22.166Z,22.60
2019-06-27T13:48:51.232Z,22.70
2019-06-27T13:51:19.973Z,22.42
2019-06-27T13:53:48.700Z,23.05
2019-06-27T13:56:17.439Z,23.04
2019-06-27T13:58:46.214Z,22.84
2019-06-27T14:01:15.262Z,23.23
2019-06-27T14:03:49.174Z,23.11
2019-06-27T14:06:14.636Z,23.14
2019-06-27T14:08:43.352Z,22.72
2019-06-27T14:11:12.076Z,22.58
2019-06-27T14:13:40.807Z,22.90
2019-06-27T14:16:09.537Z,22.87
2019-06-27T14:18:38.552Z,22.84
2019-06-27T14:21:07.739Z,23.32
2019-06-27T14:23:36.565Z,23.03
2019-06-27T14:26:05.423Z,22.97
2019-06-27T14:28:34.305Z,22.98
2019-06-27T14:31:03.475Z,22.77
2019-06-27T14:33:32.541Z,23.12
2019-06-27T14:36:01.349Z,23.45
2019-06-27T14:38:30.086Z,22.94
2019-06-27T14:40:59.240Z,23.25
2019-06-27T14:43:28.275Z,23.31
2019-06-27T14:45:57.022Z,23.28
2019-06-27T14:48:25.761Z,23.82
2019-06-27T14:50:54.556Z,23.52
2019-06-27T14:53:23.617Z,22.93
2019-06-27T14:55:52.347Z,23.11
2019-06-27T14:58:21.072Z,23.41
2019-06-27T15:00:49.944Z,23.34
2019-06-27T15:03:18.709Z,23.34
2019-06-27T15:05:47.497Z,23.34
2019-06-27T15:08:16.216Z,23.06
2019-06-27T15:10:44.991Z,23.17
2019-06-27T15:13:14.106Z,23.24
2019-06-27T15:15:42.942Z,23.49
2019-06-27T15:18:11.741Z,23.51
2019-06-27T15:20:40.470Z,23.28
2019-06-27T15:23:09.327Z,23.52
2019-06-27T15:25:38.109Z,23.49
2019-06-27T15:28:07.105Z,23.67
2019-06-27T15:30:35.838Z,23.46
2019-06-27T15:33:04.585Z,23.34
2019-06-27T15:35:37.747Z,22.85
2019-06-27T15:38:04.123Z,23.22
2019-06-27T15:40:32.908Z,23.12
2019-06-27T15:43:01.748Z,23.27
2019-06-27T15:45:46.536Z,23.62
2019-06-27T15:48:16.211Z,23.47
2019-06-27T15:50:45.049Z,23.54
2019-06-27T15:53:13.764Z,23.37
2019-06-27T15:55:42.511Z,23.40
2019-06-27T15:58:11.315Z,23.24
2019-06-27T16:00:40.131Z,23.23
2019-06-27T16:03:08.888Z,23.14
2019-06-27T16:05:37.841Z,23.36
2019-06-27T16:08:06.638Z,23.47
2019-06-27T16:10:35.615Z,23.22
2019-06-27T16:13:04.521Z,23.03
2019-06-27T16:29:20.964Z,22.93
2019-06-27T16:31:49.689Z,22.98
2019-06-27T16:34:18.567Z,22.89
2019-06-27T16:36:47.378Z,23.03
2019-06-27T16:39:16.131Z,22.82
2019-06-27T16:41:44.860Z,23.02
2019-06-27T16:44:13.615Z,23.16
2019-06-27T16:46:42.338Z,23.21
2019-06-27T16:49:11.179Z,23.20
2019-06-27T16:51:39.939Z,22.86
2019-06-27T16:54:08.845Z,22.97
2019-06-27T16:56:37.731Z,22.88
2019-06-27T16:59:07.607Z,22.76
2019-06-27T17:01:36.468Z,23.02
2019-06-27T17:04:05.551Z,23.17
2019-06-27T17:06:42.123Z,23.01
2019-06-27T17:09:06.036Z,22.90
2019-06-27T17:11:34.720Z,23.04
2019-06-27T17:14:03.539Z,22.61
2019-06-27T17:16:32.691Z,22.69
2019-06-27T17:19:01.426Z,23.00
2019-06-27T17:21:30.180Z,22.75
2019-06-27T17:23:58.910Z,22.77
2019-06-27T17:26:27.649Z,22.94
2019-06-27T17:28:56.375Z,22.94
2019-06-27T17:31:25.401Z,22.69
2019-06-27T17:33:54.178Z,22.89
2019-06-27T17:36:22.909Z,22.77
2019-06-27T17:38:51.653Z,22.73
2019-06-27T17:41:20.618Z,22.56
2019-06-27T17:43:49.481Z,22.33
2019-06-27T17:46:19.343Z,22.36
2019-06-27T17:48:48.080Z,22.45
2019-06-27T17:51:16.815Z,22.48
2019-06-27T17:53:45.543Z,22.50
2019-06-27T17:56:14.624Z,22.44
2019-06-27T17:58:43.364Z,22.50
2019-06-27T18:01:12.243Z,22.45
2019-06-27T18:03:41.102Z,22.21
2019-06-27T18:06:09.859Z,22.12
2019-06-27T18:08:38.585Z,22.36
2019-06-27T18:11:07.375Z,22.27
2019-06-27T18:13:36.397Z,21.95
2019-06-27T18:16:05.273Z,21.86
2019-06-27T18:18:34.296Z,21.69
2019-06-27T18:21:03.099Z,21.53
2019-06-27T18:23:31.913Z,21.53
2019-06-27T18:26:00.897Z,21.48
2019-06-27T18:28:30.011Z,21.29
2019-06-27T18:30:59.007Z,21.50
2019-06-27T18:33:28.087Z,21.16
2019-06-27T18:35:56.897Z,21.13
2019-06-27T18:38:25.679Z,21.24
2019-06-27T18:40:54.501Z,21.12
2019-06-27T18:43:23.332Z,20.94
2019-06-27T18:45:52.431Z,20.98
2019-06-27T18:48:21.252Z,20.85
2019-06-27T18:50:50.419Z,20.67
2019-06-27T18:53:19.169Z,20.49
2019-06-27T18:55:47.885Z,20.56
2019-06-27T18:58:16.971Z,20.45
2019-06-27T19:00:45.787Z,20.36
2019-06-27T19:03:14.648Z,20.34
2019-06-27T19:05:43.408Z,20.08
2019-06-27T19:08:12.160Z,19.96
2019-06-27T19:10:41.228Z,20.00
2019-06-27T19:13:10.409Z,20.06
2019-06-27T19:15:39.148Z,19.90
2019-06-27T19:18:27.238Z,19.71
2019-06-27T19:20:56.829Z,19.80
2019-06-27T19:23:49.673Z,19.58
2019-06-27T19:26:18.411Z,19.66
2019-06-27T19:28:47.155Z,19.60
2019-06-27T19:31:16.186Z,19.59
2019-06-27T19:33:44.941Z,19.61
2019-06-27T19:36:13.762Z,19.26
2019-06-27T19:38:42.504Z,19.15
2019-06-27T19:41:11.298Z,19.17
2019-06-27T19:43:40.114Z,18.93
2019-06-27T19:46:08.881Z,18.77
2019-06-27T19:48:37.654Z,18.83
2019-06-27T19:51:06.422Z,18.72
2019-06-27T19:53:35.273Z,18.71
2019-06-27T19:56:04.296Z,18.60
2019-06-27T19:58:33.073Z,18.63
2019-06-27T20:01:01.842Z,18.43
2019-06-27T20:03:30.712Z,18.31
2019-06-27T20:05:59.467Z,18.36
2019-06-27T20:08:28.290Z,18.36
2019-06-27T20:10:57.272Z,18.30
2019-06-27T20:13:25.995Z,18.08
2019-06-27T20:15:54.806Z,17.99
2019-06-27T20:18:23.720Z,18.01
2019-06-27T20:20:52.440Z,17.89
2019-06-27T20:23:21.603Z,17.87
2019-06-27T20:25:50.528Z,17.82
2019-06-27T20:28:19.513Z,17.77
2019-06-27T20:30:48.253Z,17.65
2019-06-27T20:33:16.978Z,17.52
2019-06-27T20:35:46.165Z,17.48
2019-06-27T20:38:14.890Z,17.55
2019-06-27T20:40:43.717Z,17.42
2019-06-27T20:43:12.437Z,17.49
2019-06-27T20:45:41.162Z,17.43
2019-06-27T20:48:09.905Z,17.21
2019-06-27T20:50:38.831Z,17.21
2019-06-27T20:53:07.589Z,17.19
2019-06-27T20:55:36.313Z,17.18
2019-06-27T20:58:05.439Z,17.10
2019-06-27T21:00:34.267Z,17.03
2019-06-27T21:03:03.207Z,16.82
2019-06-27T21:05:31.997Z,16.81
2019-06-27T21:08:00.803Z,16.84
2019-06-27T21:10:29.550Z,16.83
2019-06-27T21:12:58.359Z,16.63
2019-06-27T21:15:27.475Z,16.69
2019-06-27T21:17:56.338Z,16.57
2019-06-27T21:20:25.299Z,16.73
2019-06-27T21:22:54.051Z,16.74
2019-06-27T21:25:22.927Z,16.69
2019-06-27T21:27:52.151Z,16.47
2019-06-27T21:30:23.084Z,16.32
2019-06-27T21:32:51.864Z,16.30
2019-06-27T21:35:20.819Z,16.21
2019-06-27T21:37:50.645Z,16.05
2019-06-27T21:40:20.054Z,16.08
2019-06-27T21:42:48.808Z,16.09
2019-06-27T21:45:17.783Z,15.97
2019-06-27T21:47:46.508Z,15.88
2019-06-27T21:50:15.553Z,15.94
2019-06-27T21:52:44.592Z,15.85
2019-06-27T21:55:13.405Z,15.69
2019-06-27T21:57:42.159Z,15.64
2019-06-27T22:00:12.251Z,15.83
2019-06-27T22:02:41.139Z,15.93
2019-06-27T22:05:10.441Z,15.54
2019-06-27T22:07:39.295Z,15.42
2019-06-27T22:10:10.094Z,15.48
2019-06-27T22:12:38.797Z,15.43
2019-06-27T22:15:08.092Z,15.42
2019-06-27T22:17:39.766Z,15.41
2019-06-27T22:20:14.899Z,15.51
2019-06-27T22:22:39.414Z,15.64
2019-06-27T22:25:08.539Z,15.49
2019-06-27T22:27:37.367Z,15.47
2019-06-27T22:30:06.501Z,15.40
2019-06-27T22:32:35.447Z,15.32
2019-06-27T22:35:05.326Z,15.50
2019-06-27T22:37:33.485Z,15.20
2019-06-27T22:40:20.217Z,14.98
2019-06-27T22:43:06.630Z,15.11
2019-06-27T22:45:53.606Z,15.11
2019-06-27T22:48:22.012Z,15.00
2019-06-27T22:51:08.225Z,14.83
2019-06-27T22:53:42.003Z,15.03
2019-06-27T22:56:11.035Z,14.71
2019-06-27T22:58:39.867Z,14.82
2019-06-27T23:01:08.637Z,14.60
2019-06-27T23:03:37.548Z,14.58
2019-06-27T23:06:06.449Z,14.90
2019-06-27T23:08:35.287Z,14.53
2019-06-27T23:11:04.006Z,14.79
2019-06-27T23:13:32.763Z,14.72
2019-06-27T23:16:01.534Z,14.55
2019-06-27T23:18:30.314Z,14.42
2019-06-27T23:20:59.046Z,14.22
2019-06-27T23:23:28.155Z,14.18
2019-06-27T23:25:56.866Z,14.13
2019-06-27T23:28:25.938Z,14.01
2019-06-27T23:30:54.657Z,14.17
2019-06-27T23:33:23.408Z,14.11
2019-06-27T23:35:52.482Z,14.05
2019-06-27T23:38:21.242Z,13.78
2019-06-27T23:40:49.982Z,13.76
2019-06-27T23:43:18.764Z,13.66
2019-06-27T23:45:47.895Z,13.60
2019-06-27T23:48:16.633Z,13.78
2019-06-27T23:50:45.382Z,13.90
2019-06-27T23:53:14.122Z,13.66
2019-06-27T23:55:42.843Z,13.72
2019-06-27T23:58:11.600Z,13.75
